createdAt,value
2023-05-25T14:40:19.985Z,38.85
2023-05-25T14:42:49.875Z,37.70
2023-05-25T14:45:20.673Z,41.25
2023-05-25T14:47:53.615Z,36.95
2023-05-25T14:50:30.283Z,33.47
2023-05-25T14:53:00.134Z,36.83
2023-05-25T14:55:29.884Z,42.97
2023-05-25T14:57:59.577Z,41.80
2023-05-25T15:00:29.292Z,42.42
2023-05-25T15:02:59.060Z,51.45
2023-05-25T15:05:28.711Z,49.80
2023-05-25T15:08:01.061Z,63.30
2023-05-25T15:10:31.250Z,69.15
2023-05-25T15:15:29.909Z,75.85
2023-05-25T15:17:59.738Z,70.28
2023-05-25T15:20:29.451Z,66.78
2023-05-25T15:22:59.240Z,70.00
2023-05-25T15:25:35.000Z,71.43
2023-05-25T15:28:05.513Z,66.72
2023-05-25T15:30:36.061Z,64.03
2023-05-25T15:33:05.953Z,66.50
2023-05-25T15:35:35.591Z,73.32
2023-05-25T15:38:05.281Z,69.30
2023-05-25T15:40:35.251Z,67.40
2023-05-25T15:43:04.853Z,66.60
2023-05-25T15:45:34.521Z,73.75
2023-05-25T15:48:05.512Z,77.10
2023-05-25T15:50:37.567Z,88.82
2023-05-25T15:53:07.526Z,81.07
2023-05-25T15:55:37.223Z,61.90
2023-05-25T15:58:06.892Z,59.15
2023-05-25T16:00:36.597Z,53.05
2023-05-25T16:03:06.298Z,56.83
2023-05-25T16:05:36.007Z,63.95
2023-05-25T16:08:05.572Z,54.90
2023-05-25T16:10:35.289Z,49.83
2023-05-25T16:13:04.939Z,48.05
2023-05-25T16:15:34.547Z,53.70
2023-05-25T16:18:04.123Z,49.95
2023-05-25T16:20:33.773Z,47.15
2023-05-25T16:23:04.296Z,54.72
2023-05-25T16:25:33.873Z,57.05
2023-05-25T16:28:03.425Z,54.70
2023-05-25T16:30:33.085Z,50.08
2023-05-25T16:33:02.802Z,47.40
2023-05-25T16:35:32.512Z,39.70
2023-05-25T16:38:02.225Z,44.75
2023-05-25T16:40:33.074Z,42.08
2023-05-25T16:43:02.737Z,46.88
2023-05-25T16:45:32.376Z,49.42
2023-05-25T16:48:02.076Z,40.90
2023-05-25T16:50:31.891Z,37.70
2023-05-25T16:53:01.582Z,39.22
2023-05-25T16:55:31.405Z,36.58
2023-05-25T16:58:01.134Z,32.47
2023-05-25T17:00:30.829Z,32.10
2023-05-25T17:03:00.635Z,29.42
2023-05-25T17:05:30.374Z,32.17
2023-05-25T17:08:00.045Z,33.10
2023-05-25T17:10:29.648Z,36.45
2023-05-25T17:12:59.390Z,44.63
2023-05-25T17:15:29.252Z,41.70
2023-05-25T17:17:58.866Z,44.88
2023-05-25T17:20:28.586Z,40.92
2023-05-25T17:22:58.605Z,35.55
2023-05-25T17:25:28.338Z,40.60
2023-05-25T17:27:58.023Z,41.20
2023-05-25T17:30:27.947Z,37.55
2023-05-25T17:33:02.844Z,37.55
2023-05-25T17:35:32.592Z,44.28
2023-05-25T17:38:02.242Z,39.97
2023-05-25T17:40:34.985Z,34.15
2023-05-25T17:43:04.775Z,37.45
2023-05-25T17:45:34.412Z,31.00
2023-05-25T17:48:04.102Z,34.67
2023-05-25T17:50:33.893Z,33.78
2023-05-25T17:53:03.612Z,32.15
2023-05-25T17:55:33.204Z,25.35
2023-05-25T17:58:02.854Z,44.15
2023-05-25T18:00:33.470Z,34.15
2023-05-25T18:03:03.130Z,28.23
2023-05-25T18:05:32.772Z,32.25
2023-05-25T18:08:02.394Z,33.28
2023-05-25T18:10:32.052Z,31.52
2023-05-25T18:13:02.028Z,38.55
2023-05-25T18:15:31.710Z,44.97
2023-05-25T18:18:02.360Z,44.92
2023-05-25T18:20:32.029Z,42.05
2023-05-25T18:23:01.686Z,37.25
2023-05-25T18:25:31.465Z,39.90
2023-05-25T18:28:01.110Z,35.22
2023-05-25T18:30:30.712Z,33.58
2023-05-25T18:33:00.467Z,30.92
2023-05-25T18:35:30.089Z,36.10
2023-05-25T18:37:59.668Z,39.70
2023-05-25T18:40:29.324Z,37.33
2023-05-25T18:42:59.004Z,34.60
2023-05-25T18:45:28.609Z,36.00
2023-05-25T18:47:58.324Z,35.90
2023-05-25T18:50:28.015Z,30.33
2023-05-25T18:52:58.187Z,27.90
2023-05-25T18:55:27.881Z,42.05
2023-05-25T18:57:58.436Z,26.55
2023-05-25T19:00:28.088Z,31.30
2023-05-25T19:02:58.909Z,41.05
2023-05-25T19:05:28.693Z,37.20
2023-05-25T19:07:59.888Z,27.52
2023-05-25T19:10:30.032Z,28.17
2023-05-25T19:12:59.641Z,37.15
2023-05-25T19:15:29.285Z,36.75
2023-05-25T19:17:59.031Z,31.23
2023-05-25T19:20:29.662Z,34.42
2023-05-25T19:22:59.357Z,28.73
2023-05-25T19:25:28.988Z,30.27
2023-05-25T19:28:00.176Z,40.22
2023-05-25T19:30:29.791Z,36.55
2023-05-25T19:32:59.548Z,30.35
2023-05-25T19:35:29.210Z,35.92
2023-05-25T19:37:59.949Z,37.83
2023-05-25T19:40:31.982Z,32.25
2023-05-25T19:43:01.659Z,40.42
2023-05-25T19:45:31.430Z,38.72
2023-05-25T19:48:01.174Z,39.25
2023-05-25T19:50:32.338Z,51.97
2023-05-25T19:53:02.475Z,38.33
2023-05-25T19:55:32.383Z,37.20
2023-05-25T19:58:04.991Z,27.75
2023-05-25T20:00:34.847Z,31.13
2023-05-25T20:03:04.589Z,36.78
2023-05-25T20:05:34.342Z,39.75
2023-05-25T20:08:03.972Z,37.92
2023-05-25T20:10:39.987Z,43.85
2023-05-25T20:13:10.223Z,35.28
2023-05-25T20:18:09.148Z,40.30
2023-05-25T20:20:38.889Z,46.42
2023-05-25T20:23:08.650Z,43.03
2023-05-25T20:25:38.388Z,35.45
2023-05-25T20:28:08.032Z,41.08
2023-05-25T20:30:37.803Z,41.63
2023-05-25T20:33:08.814Z,38.35
2023-05-25T20:35:39.518Z,35.35
2023-05-25T20:38:09.176Z,38.28
2023-05-25T20:40:38.863Z,38.85
2023-05-25T20:43:08.510Z,36.47
2023-05-25T20:45:38.588Z,34.40
2023-05-25T20:48:08.336Z,31.55
2023-05-25T20:50:37.925Z,33.15
2023-05-25T20:53:10.484Z,41.45
2023-05-25T20:55:43.033Z,41.58
2023-05-25T20:58:12.918Z,43.45
2023-05-25T21:00:42.765Z,32.15
2023-05-25T21:03:12.534Z,35.70
2023-05-25T21:05:42.426Z,29.83
2023-05-25T21:08:12.349Z,46.78
2023-05-25T21:10:42.162Z,35.28
2023-05-25T21:13:11.785Z,33.40
2023-05-25T21:15:41.419Z,42.92
2023-05-25T21:18:11.482Z,38.40
2023-05-25T21:20:41.245Z,40.53
2023-05-25T21:23:10.866Z,39.33
2023-05-25T21:25:40.476Z,35.28
2023-05-25T21:28:11.941Z,33.95
2023-05-25T21:30:41.559Z,42.22
2023-05-25T21:33:11.268Z,46.67
2023-05-25T21:35:40.931Z,33.60
2023-05-25T21:38:10.626Z,43.15
2023-05-25T21:40:40.457Z,43.55
2023-05-25T21:43:10.689Z,38.15
2023-05-25T21:48:09.440Z,41.05
2023-05-25T21:50:40.470Z,51.78
2023-05-25T21:53:10.097Z,56.75
2023-05-25T21:55:39.679Z,66.55
2023-05-25T21:58:10.277Z,77.80
2023-05-25T22:00:39.919Z,74.15
2023-05-25T22:03:09.703Z,75.40
2023-05-25T22:05:39.440Z,53.80
2023-05-25T22:08:10.278Z,42.40
2023-05-25T22:10:40.835Z,46.33
2023-05-25T22:13:10.427Z,45.83
2023-05-25T22:15:40.238Z,40.10
2023-05-25T22:18:09.922Z,41.55
2023-05-25T22:20:40.600Z,43.53
2023-05-25T22:23:11.124Z,42.90
2023-05-25T22:25:40.857Z,38.05
2023-05-25T22:28:10.620Z,35.10
2023-05-25T22:30:40.299Z,43.22
2023-05-25T22:33:10.722Z,36.80
2023-05-25T22:35:46.642Z,43.72
2023-05-25T22:38:16.562Z,47.60
2023-05-25T22:40:49.030Z,48.10
2023-05-25T22:43:21.844Z,49.58
2023-05-25T22:45:51.541Z,49.20
2023-05-25T22:48:21.239Z,58.67
2023-05-25T22:50:50.813Z,57.10
2023-05-25T22:53:20.676Z,58.08
2023-05-25T22:55:50.588Z,61.17
2023-05-25T22:58:20.454Z,70.95
2023-05-25T23:00:50.130Z,64.85
2023-05-25T23:03:22.880Z,65.93
2023-05-25T23:05:52.562Z,78.72
2023-05-25T23:08:22.318Z,66.20
2023-05-25T23:10:54.048Z,68.53
2023-05-25T23:13:28.441Z,73.90
2023-05-25T23:16:06.157Z,70.45
2023-05-25T23:18:37.664Z,72.07
2023-05-25T23:21:10.593Z,70.20
2023-05-25T23:23:43.224Z,74.00
2023-05-25T23:26:12.884Z,67.05
2023-05-25T23:28:42.543Z,58.78
2023-05-25T23:31:12.248Z,70.88
2023-05-25T23:33:41.938Z,58.55
2023-05-25T23:36:11.621Z,58.60
2023-05-25T23:38:41.337Z,50.33
2023-05-25T23:41:11.134Z,63.47
2023-05-25T23:43:40.802Z,52.67
2023-05-25T23:46:10.492Z,53.83
2023-05-25T23:48:40.189Z,54.63
2023-05-25T23:51:09.860Z,54.95
2023-05-25T23:53:39.556Z,54.60
2023-05-25T23:56:10.245Z,64.32
2023-05-25T23:58:39.897Z,66.53
